Time;durP1;ratioP1;P1;durP2;ratioP2;P2;SDS_P1;SDS_P2;PMS_P1;PMS_P2;Temp;Humidity;BMP_temperature;BMP_pressure;BME280_temperature;BME280_humidity;BME280_pressure;Samples;Min_cycle;Max_cycle;Signal;HPM_P1;HPM_P2
2022/01/21 00:02:25;;;;;;;12.43;3.63;;;;;;;1.99;72.75;102160.94;5002021;28;20196;-75
2022/01/21 00:05:28;;;;;;;13.93;3.92;;;;;;;1.88;72.18;102159.09;5002723;28;20096;-75
2022/01/21 00:08:39;;;;;;;14.13;4.28;;;;;;;1.83;73.18;102171.97;4999032;28;20045;-75
2022/01/21 00:11:43;;;;;;;24.23;5.47;;;;;;;1.72;73.08;102177.00;5002384;28;20048;-75
2022/01/21 00:14:46;;;;;;;14.32;3.83;;;;;;;1.57;73.42;102177.69;5002028;28;20579;-75
2022/01/21 00:17:49;;;;;;;18.00;5.18;;;;;;;1.68;73.55;102176.94;5002428;28;20041;-75
2022/01/21 00:30:59;;;;;;;13.32;3.63;;;;;;;2.01;74.63;102200.53;5014091;28;20049;-75
2022/01/21 00:34:03;;;;;;;16.42;4.00;;;;;;;2.10;74.37;102205.75;5012063;28;20080;-75
2022/01/21 00:47:23;;;;;;;15.02;4.32;;;;;;;1.89;73.51;102199.53;5012046;28;20583;-75
2022/01/21 00:50:27;;;;;;;14.55;3.67;;;;;;;1.79;74.48;102211.47;5013340;28;20053;-75
2022/01/21 00:53:30;;;;;;;;;;;;;;;1.89;74.52;102215.88;5014084;28;20044;-75
2022/01/21 00:56:34;;;;;;;15.75;3.70;;;;;;;1.69;75.88;102212.19;5013770;28;19924;-75
2022/01/21 00:59:38;;;;;;;17.65;6.60;;;;;;;1.76;75.43;102211.44;5001383;28;20048;-75
2022/01/21 01:02:42;;;;;;;16.83;6.88;;;;;;;1.91;74.66;102214.16;5013627;28;20052;-75
2022/01/21 01:05:53;;;;;;;13.57;6.47;;;;;;;1.92;74.65;102220.22;4990190;28;20084;-75
2022/01/21 01:09:12;;;;;;;14.63;5.20;;;;;;;1.66;75.03;102219.91;5001868;28;20439;-75
2022/01/21 01:12:27;;;;;;;13.15;4.70;;;;;;;1.78;75.14;102222.63;4972678;28;20062;-75
2022/01/21 01:22:15;;;;;;;10.18;4.43;;;;;;;1.63;75.45;102231.06;5013338;28;20573;-75
2022/01/21 01:28:41;;;;;;;13.80;5.07;;;;;;;1.70;75.33;102221.69;5013470;28;20111;-75
2022/01/21 01:31:45;;;;;;;15.07;6.68;;;;;;;1.66;75.67;102212.16;5011213;28;20044;-75
2022/01/21 01:34:49;;;;;;;21.17;4.32;;;;;;;1.39;75.69;102231.59;5000389;28;20103;-75
2022/01/21 01:41:12;;;;;;;14.95;7.38;;;;;;;1.57;74.57;102216.38;4986560;28;20108;-74
2022/01/21 01:51:07;;;;;;;11.07;5.65;;;;;;;1.65;75.22;102236.22;5012727;28;20049;-75
2022/01/21 01:54:13;;;;;;;19.25;5.47;;;;;;;1.69;75.20;102232.81;5012829;28;20565;-75
2022/01/21 01:57:16;;;;;;;16.27;8.52;;;;;;;1.72;75.37;102235.44;5000514;28;20099;-75
2022/01/21 02:00:19;;;;;;;;;;;;;;;1.63;75.20;102228.47;5001064;28;20116;-75
2022/01/21 02:03:23;;;;;;;19.23;7.15;;;;;;;1.60;75.59;102239.63;5000632;28;19921;-74
2022/01/21 02:06:27;;;;;;;15.55;6.63;;;;;;;1.39;75.40;102239.34;5012489;28;20049;-75
2022/01/21 02:09:31;;;;;;;20.60;6.30;;;;;;;1.41;76.17;102232.50;4989170;28;20053;-75
2022/01/21 02:12:35;;;;;;;15.00;5.30;;;;;;;1.46;76.54;102230.84;5012583;28;20427;-75
2022/01/21 02:15:42;;;;;;;19.17;6.97;;;;;;;1.58;75.27;102249.03;5000160;28;20107;-75
2022/01/21 02:22:10;;;;;;;;;;;;;;;1.73;74.20;102237.19;4989637;28;20123;-75
2022/01/21 02:25:19;;;;;;;13.55;4.70;;;;;;;1.62;75.08;102243.06;4971066;28;19919;-75
2022/01/21 02:28:26;;;;;;;16.67;5.75;;;;;;;1.77;75.03;102226.06;5000287;28;20045;-75
2022/01/21 02:31:34;;;;;;;12.88;4.50;;;;;;;1.61;74.86;102225.88;5000363;28;20092;-75
2022/01/21 02:34:42;;;;;;;20.13;6.00;;;;;;;1.59;75.36;102240.44;4999777;28;20104;-75
2022/01/21 02:37:51;;;;;;;15.10;6.20;;;;;;;1.66;75.36;102227.63;5011447;28;20053;-75
2022/01/21 02:41:03;;;;;;;20.23;7.65;;;;;;;1.54;75.86;102215.47;5000827;28;20080;-75
2022/01/21 02:44:13;;;;;;;18.38;10.68;;;;;;;1.62;75.65;102227.59;5000118;28;20513;-75
2022/01/21 02:47:18;;;;;;;18.77;7.07;;;;;;;1.58;74.97;102227.56;4988894;28;20095;-75
2022/01/21 02:50:28;;;;;;;30.58;16.17;;;;;;;1.76;75.04;102216.59;4999977;28;20080;-75
2022/01/21 02:54:03;;;;;;;25.67;11.80;;;;;;;1.86;74.75;102215.84;4988703;28;20427;-75
2022/01/21 02:57:07;;;;;;;49.75;23.33;;;;;;;1.81;75.57;102220.06;4999969;28;20049;-75
2022/01/21 03:00:10;;;;;;;36.08;17.27;;;;;;;1.90;75.84;102216.75;4988801;28;20053;-75
2022/01/21 03:03:14;;;;;;;25.65;9.65;;;;;;;1.97;75.14;102209.06;4988608;28;20053;-75
2022/01/21 03:06:20;;;;;;;17.42;6.47;;;;;;;2.00;74.73;102203.94;5012018;28;20053;-75
2022/01/21 03:09:23;;;;;;;17.77;7.60;;;;;;;1.86;75.51;102227.03;4999902;28;20196;-75
2022/01/21 03:12:27;;;;;;;;;;;;;;;1.78;76.30;102227.78;4988937;28;20411;-75
2022/01/21 03:15:30;;;;;;;14.88;6.18;;;;;;;1.79;76.28;102232.09;4977036;28;19924;-75
2022/01/21 03:18:34;;;;;;;22.40;9.05;;;;;;;1.65;76.72;102231.06;4977290;28;20435;-75
2022/01/21 03:21:38;;;;;;;20.85;8.38;;;;;;;1.66;76.24;102232.78;4988492;28;20408;-75
2022/01/21 03:24:41;;;;;;;30.70;13.15;;;;;;;1.57;76.41;102244.75;4997800;28;20048;-75
2022/01/21 03:27:44;;;;;;;14.50;7.05;;;;;;;1.62;75.64;102237.91;4988084;28;20526;-75
2022/01/21 03:30:50;;;;;;;13.23;5.32;;;;;;;1.62;75.28;102245.63;4999634;28;20084;-75
2022/01/21 03:33:54;;;;;;;13.18;5.78;;;;;;;1.62;76.43;102247.34;4988468;28;20061;-75
2022/01/21 03:36:57;;;;;;;14.85;5.28;;;;;;;1.73;75.08;102245.78;4999540;28;20121;-75
2022/01/21 03:40:02;;;;;;;18.50;5.20;;;;;;;1.65;75.44;102255.13;4999371;28;20107;-75
2022/01/21 03:43:14;;;;;;;12.65;5.85;;;;;;;1.81;75.29;102259.63;5000077;28;20053;-75
2022/01/21 03:46:18;;;;;;;11.13;4.03;;;;;;;1.62;75.84;102258.53;5002932;28;20053;-75
2022/01/21 03:49:22;;;;;;;12.82;4.82;;;;;;;1.76;75.33;102261.31;4991861;28;20052;-75
2022/01/21 03:52:25;;;;;;;12.48;6.07;;;;;;;1.89;75.25;102264.88;4991764;28;20076;-75
2022/01/21 03:55:39;;;;;;;15.05;4.93;;;;;;;1.88;75.83;102265.72;5000537;28;20134;-77
2022/01/21 03:58:51;;;;;;;18.27;5.97;;;;;;;1.82;76.43;102261.38;5002868;28;20044;-77
2022/01/21 04:02:06;;;;;;;19.05;4.78;;;;;;;1.75;76.16;102272.44;5002705;28;20080;-77
2022/01/21 04:05:18;;;;;;;16.65;4.72;;;;;;;1.81;76.38;102284.56;4993294;28;20187;-76
2022/01/21 04:08:22;;;;;;;12.27;4.78;;;;;;;1.98;75.81;102284.75;5014858;28;20049;-76
2022/01/21 04:11:31;;;;;;;18.58;5.93;;;;;;;1.98;76.42;102283.06;5002245;28;20100;-76
2022/01/21 04:14:34;;;;;;;11.32;5.05;;;;;;;2.02;76.46;102274.50;4990988;28;20192;-76
2022/01/21 04:17:38;;;;;;;11.73;5.53;;;;;;;2.07;76.02;102275.41;5002693;28;20044;-76
2022/01/21 04:20:44;;;;;;;15.68;5.28;;;;;;;2.12;75.95;102272.00;4991206;28;20634;-76
2022/01/21 04:23:48;;;;;;;13.45;6.18;;;;;;;1.83;75.48;102273.41;5000276;28;20403;-76
2022/01/21 04:27:01;;;;;;;14.52;5.97;;;;;;;1.88;76.15;102270.88;4974470;28;20125;-76
2022/01/21 04:30:07;;;;;;;13.20;5.82;;;;;;;2.00;75.37;102267.56;4952191;28;20049;-76
2022/01/21 04:33:12;;;;;;;17.33;6.93;;;;;;;2.14;75.68;102273.75;4973559;28;20096;-75
2022/01/21 04:36:16;;;;;;;16.17;5.97;;;;;;;2.26;75.57;102273.00;4990855;28;20124;-75
2022/01/21 04:39:26;;;;;;;20.23;6.47;;;;;;;2.12;76.35;102272.00;5002240;28;20048;-75
2022/01/21 04:49:14;;;;;;;17.13;6.07;;;;;;;2.03;77.22;102286.53;5014045;28;20056;-75
2022/01/21 04:52:19;;;;;;;18.48;6.18;;;;;;;2.14;76.07;102288.34;4979608;28;20176;-75
2022/01/21 04:55:26;;;;;;;13.93;6.60;;;;;;;2.00;77.42;102291.66;4998432;28;20149;-75
2022/01/21 04:58:30;;;;;;;15.70;6.82;;;;;;;1.94;77.06;102291.59;5001629;28;20389;-75
2022/01/21 05:01:34;;;;;;;13.15;6.53;;;;;;;1.83;78.24;102293.19;4990434;28;20457;-75
2022/01/21 05:04:38;;;;;;;16.15;6.65;;;;;;;2.02;77.03;102297.72;5001647;28;20457;-75
2022/01/21 05:07:42;;;;;;;18.33;7.28;;;;;;;2.02;76.33;102310.63;5001267;28;20095;-75
2022/01/21 05:10:47;;;;;;;15.23;7.20;;;;;;;1.81;76.64;102306.03;5001448;28;20506;-75
2022/01/21 05:14:11;;;;;;;15.90;7.22;;;;;;;1.95;76.37;102319.13;5009948;28;20048;-75
2022/01/21 05:17:18;;;;;;;20.92;8.40;;;;;;;1.80;76.25;102298.31;4981917;28;20161;-75
2022/01/21 05:20:21;;;;;;;20.20;8.95;;;;;;;1.53;76.74;102293.66;4981623;28;20104;-75
2022/01/21 05:23:53;;;;;;;17.08;9.00;;;;;;;1.63;77.44;102306.69;4981556;28;20049;-77
2022/01/21 05:27:25;;;;;;;20.92;9.05;;;;;;;1.65;77.43;102303.25;4980405;28;20153;-77
2022/01/21 05:30:33;;;;;;;23.77;9.73;;;;;;;1.81;76.01;102307.75;5000226;28;20530;-76
2022/01/21 05:34:10;;;;;;;18.83;8.68;;;;;;;2.00;75.69;102299.41;4981303;28;20044;-75
2022/01/21 05:37:18;;;;;;;20.83;9.57;;;;;;;2.07;75.91;102284.84;4958964;28;20046;-76
2022/01/21 05:40:43;;;;;;;19.15;9.00;;;;;;;1.88;76.21;102288.94;4969760;28;20108;-76
2022/01/21 05:46:22;;;;;;;20.33;9.10;;;;;;;2.00;76.45;102276.19;4968343;28;20113;-76
2022/01/21 05:47:46;;;;;;;24.40;9.93;;;;;;;1.95;76.52;102292.47;4959664;28;20097;-76
2022/01/21 05:51:22;;;;;;;26.70;10.35;;;;;;;1.86;75.48;102293.22;4984490;28;20045;-76
2022/01/21 05:54:39;;;;;;;21.70;9.05;;;;;;;1.85;76.54;102300.09;4995800;28;20462;-77
2022/01/21 05:58:00;;;;;;;15.02;8.40;;;;;;;2.04;76.56;102288.28;5007890;28;20126;-77
2022/01/21 06:01:04;;;;;;;;;;;;;;;1.89;76.78;102298.41;4984916;28;20045;-76
2022/01/21 06:04:08;;;;;;;17.23;9.18;;;;;;;1.99;76.47;102295.09;5006542;28;19924;-77
2022/01/21 06:07:13;;;;;;;21.55;11.45;;;;;;;2.16;75.84;102295.28;4995314;28;20057;-77
2022/01/21 06:10:18;;;;;;;17.05;9.10;;;;;;;1.91;76.85;102306.16;4984519;28;20581;-76
2022/01/21 06:13:26;;;;;;;20.05;9.50;;;;;;;1.81;77.07;102300.03;5007961;28;20522;-76
2022/01/21 06:16:34;;;;;;;27.75;10.98;;;;;;;1.81;76.91;102300.03;5007335;28;20111;-77
2022/01/21 06:19:41;;;;;;;21.30;9.10;;;;;;;1.85;77.04;102301.78;4996637;28;20060;-76
2022/01/21 06:22:48;;;;;;;24.08;10.00;;;;;;;1.70;77.87;102299.03;5008589;28;20049;-76
2022/01/21 06:26:02;;;;;;;19.85;10.60;;;;;;;1.97;77.42;102312.25;5008150;28;20053;-76
2022/01/21 06:29:09;;;;;;;23.42;10.75;;;;;;;1.62;78.89;102314.41;4985935;28;20053;-76
2022/01/21 06:32:22;;;;;;;27.80;13.60;;;;;;;1.44;80.14;102322.75;4986114;28;20103;-76
2022/01/21 06:35:28;;;;;;;25.88;11.38;;;;;;;1.47;80.31;102327.97;5008977;28;20115;-76
2022/01/21 06:38:32;;;;;;;29.25;10.40;;;;;;;1.65;80.65;102329.91;4962784;28;20046;-76
2022/01/21 06:41:35;;;;;;;28.35;12.23;;;;;;;1.55;81.16;102333.22;4956758;28;20104;-76
2022/01/21 06:44:40;;;;;;;24.25;11.77;;;;;;;1.72;80.78;102330.84;4945409;28;20096;-76
2022/01/21 06:47:44;;;;;;;31.88;14.30;;;;;;;1.87;80.28;102333.63;4945625;28;20188;-76
2022/01/21 06:50:48;;;;;;;25.42;12.38;;;;;;;1.98;80.78;102338.91;4956459;28;20515;-77
2022/01/21 06:53:52;;;;;;;26.63;12.18;;;;;;;2.03;80.57;102342.44;4969306;28;20451;-76
2022/01/21 06:56:55;;;;;;;29.13;11.80;;;;;;;2.05;81.38;102344.19;4969346;28;20069;-76
2022/01/21 06:59:59;;;;;;;26.02;12.73;;;;;;;2.12;81.01;102346.84;4962976;28;20069;-76
2022/01/21 07:03:03;;;;;;;26.27;13.32;;;;;;;2.20;80.36;102360.69;4988921;28;20162;-76
2022/01/21 07:06:07;;;;;;;30.52;11.43;;;;;;;2.09;80.62;102358.84;4976431;28;20530;-76
2022/01/21 07:09:11;;;;;;;25.65;10.73;;;;;;;2.03;80.71;102358.78;4988708;28;20080;-77
2022/01/21 07:12:14;;;;;;;27.13;11.32;;;;;;;2.13;80.45;102351.16;4977336;28;20129;-76
2022/01/21 07:15:19;;;;;;;;;;;;;;;2.23;80.54;102358.16;4989103;28;20116;-77
2022/01/21 07:18:23;;;;;;;23.35;10.85;;;;;;;2.25;80.36;102356.47;4978127;28;19919;-77
2022/01/21 07:22:16;;;;;;;30.92;12.38;;;;;;;1.76;81.54;102358.44;4980614;28;20053;-77
2022/01/21 07:25:19;;;;;;;139.20;113.40;;;;;;;1.67;82.17;102358.31;4981029;28;20050;-76
2022/01/21 07:28:22;;;;;;;;;;;;;;;1.75;81.61;102359.25;4992973;28;20426;-76
2022/01/21 07:31:26;;;;;;;38.35;14.93;;;;;;;1.75;81.01;102351.53;4992196;28;19924;-76
2022/01/21 07:34:29;;;;;;;31.08;17.35;;;;;;;1.82;81.25;102364.53;4979115;28;20048;-76
2022/01/21 07:37:33;;;;;;;;;;;;;;;1.76;80.72;102373.91;4990887;28;20515;-76
2022/01/21 07:40:36;;;;;;;30.05;14.23;;;;;;;1.61;81.70;102366.81;4980074;28;19972;-76
2022/01/21 07:43:39;;;;;;;;;;;;;;;1.55;81.85;102377.91;4979716;28;20048;-75
2022/01/21 07:46:45;;;;;;;31.20;17.00;;;;;;;1.43;82.57;102379.44;5010540;28;20345;-76
2022/01/21 07:49:52;;;;;;;32.20;17.27;;;;;;;1.67;82.52;102374.66;5010933;28;20064;-76
2022/01/21 07:52:55;;;;;;;;;;;;;;;1.47;82.63;102376.94;4998595;28;20073;-76
2022/01/21 07:56:01;;;;;;;39.20;14.38;;;;;;;1.72;82.45;102377.28;5010378;28;19935;-78
2022/01/21 07:59:11;;;;;;;23.60;13.63;;;;;;;1.90;82.04;102379.25;4997774;28;20045;-77
2022/01/21 08:02:15;;;;;;;20.70;10.88;;;;;;;1.95;81.60;102383.63;4975371;28;20068;-77
2022/01/21 08:05:18;;;;;;;24.63;12.18;;;;;;;2.05;80.99;102371.72;4977356;28;20101;-76
2022/01/21 08:08:24;;;;;;;24.10;12.15;;;;;;;1.85;81.26;102361.13;4979002;28;20097;-77
2022/01/21 08:11:28;;;;;;;25.42;11.02;;;;;;;1.72;81.32;102356.66;4994841;28;20057;-76
2022/01/21 08:14:32;;;;;;;38.38;17.23;;;;;;;1.63;81.88;102353.13;4998843;28;20558;-76
2022/01/21 08:17:36;;;;;;;33.17;14.60;;;;;;;1.55;82.74;102369.31;4987579;28;20044;-77
2022/01/21 08:20:39;;;;;;;20.38;10.02;;;;;;;1.59;82.44;102361.63;4985634;28;20707;-78
2022/01/21 08:23:43;;;;;;;34.17;12.75;;;;;;;1.78;82.12;102365.31;4948600;28;20057;-78
2022/01/21 08:26:52;;;;;;;20.85;12.30;;;;;;;1.84;81.94;102373.16;4953056;28;20062;-77
2022/01/21 08:29:56;;;;;;;30.80;12.55;;;;;;;2.13;81.36;102376.97;4959309;28;20122;-77
2022/01/21 08:33:00;;;;;;;23.02;11.07;;;;;;;1.92;82.17;102380.16;4971364;28;20053;-77
2022/01/21 08:36:07;;;;;;;54.45;12.68;;;;;;;2.28;82.33;102380.59;4972170;28;20550;-77
2022/01/21 08:39:10;;;;;;;18.70;10.85;;;;;;;2.32;80.69;102378.91;4970910;28;20057;-77
2022/01/21 08:42:14;;;;;;;;;;;;;;;1.97;82.15;102379.34;4991027;28;20053;-78
2022/01/21 08:45:19;;;;;;;23.77;10.80;;;;;;;1.94;82.59;102384.47;4989784;28;19920;-77
2022/01/21 08:48:22;;;;;;;18.15;8.48;;;;;;;2.00;82.91;102400.03;4967223;28;20048;-78
2022/01/21 08:51:29;;;;;;;19.30;9.93;;;;;;;1.94;83.48;102394.78;4979076;28;20103;-78
2022/01/21 08:54:33;;;;;;;27.80;12.10;;;;;;;2.00;83.46;102400.03;4967343;28;20065;-78
2022/01/21 08:57:40;;;;;;;24.35;11.35;;;;;;;2.08;83.81;102402.72;4978411;28;20112;-78
2022/01/21 09:00:43;;;;;;;18.67;9.18;;;;;;;2.17;83.20;102399.38;4978483;28;20070;-78
2022/01/21 09:03:46;;;;;;;19.90;9.48;;;;;;;2.13;82.90;102406.19;4990582;28;20038;-77
2022/01/21 09:06:50;;;;;;;18.00;9.95;;;;;;;1.80;84.67;102406.63;4978074;28;20068;-78
2022/01/21 09:09:53;;;;;;;;;;;;;;;1.68;84.93;102401.28;4981902;28;20115;-77
2022/01/21 09:13:00;;;;;;;25.83;8.93;;;;;;;1.68;85.12;102398.72;4998519;28;19997;-77
2022/01/21 09:16:07;;;;;;;20.40;8.63;;;;;;;1.93;83.90;102390.47;4989780;28;20473;-77
2022/01/21 09:19:11;;;;;;;18.85;9.30;;;;;;;1.95;83.79;102396.53;4989945;28;20056;-77
2022/01/21 09:22:15;;;;;;;16.95;9.18;;;;;;;2.01;83.57;102406.03;4967344;28;20574;-77
2022/01/21 09:25:19;;;;;;;19.25;8.93;;;;;;;1.84;84.01;102398.09;4970115;28;20574;-77
2022/01/21 09:28:23;;;;;;;18.60;8.13;;;;;;;2.12;83.05;102406.19;4970602;28;20081;-77
2022/01/21 09:31:27;;;;;;;16.20;8.05;;;;;;;2.12;83.24;102416.53;4970916;28;20053;-78
2022/01/21 09:34:31;;;;;;;15.35;8.38;;;;;;;2.27;81.94;102403.81;4971290;28;20197;-76
2022/01/21 09:37:34;;;;;;;19.30;7.68;;;;;;;2.37;81.34;102395.31;4959195;28;20745;-77
2022/01/21 09:40:43;;;;;;;12.88;7.78;;;;;;;2.46;80.45;102399.75;4958055;28;20606;-77
2022/01/21 09:43:49;;;;;;;16.40;7.50;;;;;;;2.45;80.92;102401.44;4970794;28;20053;-77
2022/01/21 09:46:53;;;;;;;19.20;8.93;;;;;;;2.31;80.79;102408.16;4970529;28;20081;-77
2022/01/21 09:49:57;;;;;;;15.93;7.65;;;;;;;2.38;80.19;102406.50;4970318;28;20129;-77
2022/01/21 09:53:01;;;;;;;23.38;8.05;;;;;;;2.48;79.72;102398.88;4974611;28;20523;-78
2022/01/21 09:56:06;;;;;;;21.40;8.30;;;;;;;2.59;79.15;102408.50;4966968;28;20108;-77
2022/01/21 09:59:10;;;;;;;17.20;8.02;;;;;;;2.51;79.08;102404.09;4978198;28;20041;-77
2022/01/21 10:02:18;;;;;;;15.95;7.10;;;;;;;2.58;79.00;102409.31;4966885;28;20606;-77
2022/01/21 10:05:21;;;;;;;22.65;9.30;;;;;;;2.55;78.79;102415.31;4988498;28;20547;-77
2022/01/21 10:08:25;;;;;;;17.75;7.72;;;;;;;2.58;79.03;102405.00;4977019;28;20658;-76
2022/01/21 10:11:28;;;;;;;;;;;;;;;2.73;78.10;102417.22;4976725;28;20071;-77
2022/01/21 10:14:32;;;;;;;20.23;7.07;;;;;;;2.66;77.73;102412.84;4989014;28;19921;-77
2022/01/21 10:17:37;;;;;;;17.83;7.30;;;;;;;2.52;78.68;102420.44;5006969;28;20037;-78
2022/01/21 10:21:05;;;;;;;14.88;7.07;;;;;;;2.63;78.94;102415.41;4995609;28;20411;-77
2022/01/21 10:24:14;;;;;;;13.93;6.05;;;;;;;2.71;78.40;102411.16;4995727;28;20049;-77
2022/01/21 10:27:27;;;;;;;14.98;6.53;;;;;;;2.64;78.15;102402.50;4995188;28;20057;-77
2022/01/21 10:30:31;;;;;;;17.48;6.90;;;;;;;2.63;78.12;102407.66;5008146;28;20157;-77
2022/01/21 10:33:42;;;;;;;;;;;;;;;2.77;78.18;102404.34;5008011;28;20525;-77
2022/01/21 10:37:05;;;;;;;11.70;4.78;;;;;;;2.71;78.27;102403.41;4995693;28;19946;-77
2022/01/21 10:40:10;;;;;;;18.98;6.28;;;;;;;2.65;78.73;102412.00;4996155;28;20060;-77
2022/01/21 10:43:16;;;;;;;14.00;5.75;;;;;;;2.62;78.55;102427.47;5008221;28;20096;-76
2022/01/21 10:46:20;;;;;;;17.88;5.50;;;;;;;2.56;78.15;102423.09;4984818;28;20060;-77
2022/01/21 10:49:23;;;;;;;;;;;;;;;2.65;78.01;102424.03;4996036;28;20048;-77
2022/01/21 10:52:39;;;;;;;23.70;11.85;;;;;;;2.83;77.97;102429.38;5007511;28;19955;-75
2022/01/21 10:55:42;;;;;;;98.45;49.90;;;;;;;2.95;77.63;102426.94;4992393;28;20045;-77
2022/01/21 10:58:53;;;;;;;24.48;12.63;;;;;;;3.15;76.75;102423.66;4992299;28;20087;-77
2022/01/21 11:01:59;;;;;;;12.18;6.40;;;;;;;2.94;77.58;102414.88;4992270;28;20112;-77
2022/01/21 11:05:10;;;;;;;14.48;6.03;;;;;;;2.91;77.70;102408.81;4979797;28;20049;-77
2022/01/21 11:08:15;;;;;;;12.48;5.63;;;;;;;2.78;77.67;102406.09;4980021;28;20092;-77
2022/01/21 11:11:22;;;;;;;12.00;5.68;;;;;;;2.75;78.42;102407.78;4992131;28;20084;-77
2022/01/21 11:14:26;;;;;;;14.68;7.30;;;;;;;2.97;77.92;102394.22;4977466;28;20104;-77
2022/01/21 11:17:29;;;;;;;23.75;7.07;;;;;;;2.67;79.03;102396.50;4988982;28;20080;-77
2022/01/21 11:20:39;;;;;;;15.25;6.38;;;;;;;3.01;78.99;102401.16;4967012;28;20064;-77
2022/01/21 11:23:42;;;;;;;11.15;5.80;;;;;;;2.96;78.90;102396.78;4990403;28;20607;-77
2022/01/21 11:27:12;;;;;;;20.83;6.82;;;;;;;2.94;78.78;102399.38;4991829;28;20080;-77
2022/01/21 11:30:15;;;;;;;19.80;11.10;;;;;;;2.93;78.72;102400.19;4978991;28;20049;-77
2022/01/21 11:33:19;;;;;;;14.68;6.38;;;;;;;2.82;79.01;102394.06;4995638;28;20049;-77
2022/01/21 11:36:24;;;;;;;14.88;7.30;;;;;;;2.65;79.53;102400.78;4998445;28;20096;-77
2022/01/21 11:39:30;;;;;;;21.10;9.07;;;;;;;2.53;79.48;102399.81;5011061;28;20133;-77
2022/01/21 11:42:38;;;;;;;14.98;7.20;;;;;;;2.65;80.03;102398.19;5012088;28;20518;-77
2022/01/21 11:49:15;;;;;;;20.80;11.50;;;;;;;2.82;78.92;102391.50;4991701;28;20518;-77
2022/01/21 11:52:19;;;;;;;19.27;8.88;;;;;;;2.85;78.87;102388.94;4990664;28;20346;-77
2022/01/21 11:55:30;;;;;;;20.83;7.55;;;;;;;2.88;78.82;102380.38;4978416;28;20084;-77
2022/01/21 11:58:34;;;;;;;15.80;6.95;;;;;;;2.89;78.54;102380.34;4956470;28;20097;-77
2022/01/21 12:01:48;;;;;;;16.42;7.45;;;;;;;3.28;76.92;102373.78;4977980;28;20054;-77
2022/01/21 12:04:55;;;;;;;15.65;7.53;;;;;;;3.46;76.77;102358.41;4966736;28;20193;-77
2022/01/21 12:08:03;;;;;;;15.93;7.32;;;;;;;3.15;76.67;102369.38;4990209;28;20045;-77
2022/01/21 12:11:34;;;;;;;19.50;8.38;;;;;;;3.17;77.19;102365.97;4990521;28;20096;-77
2022/01/21 12:14:43;;;;;;;11.95;6.60;;;;;;;2.98;77.75;102354.59;4989010;28;20057;-77
2022/01/21 12:17:52;;;;;;;26.80;14.88;;;;;;;3.06;77.88;102364.13;4978089;28;20137;-77
2022/01/21 12:20:59;;;;;;;15.88;8.85;;;;;;;2.98;77.45;102362.34;4990214;28;20073;-76
2022/01/21 12:24:03;;;;;;;20.38;10.15;;;;;;;3.16;77.98;102353.91;4990307;28;20045;-77
2022/01/21 12:27:09;;;;;;;13.95;6.40;;;;;;;3.19;77.61;102353.94;4978010;28;20044;-77
2022/01/21 12:30:31;;;;;;;22.40;12.82;;;;;;;3.13;78.02;102355.59;4956106;28;20088;-77
2022/01/21 12:34:04;;;;;;;24.70;12.32;;;;;;;3.15;77.86;102361.63;4978849;28;20056;-76
2022/01/21 12:37:10;;;;;;;26.10;11.48;;;;;;;3.14;78.28;102357.31;4989429;28;20112;-77
2022/01/21 12:40:32;;;;;;;13.73;6.75;;;;;;;3.21;78.15;102359.94;4990475;28;20128;-77
2022/01/21 12:43:47;;;;;;;18.30;6.63;;;;;;;3.03;79.04;102360.69;4996601;28;20037;-77
2022/01/21 12:46:52;;;;;;;18.13;7.50;;;;;;;3.07;79.23;102355.56;5009465;28;20057;-76
2022/01/21 12:49:57;;;;;;;18.42;5.97;;;;;;;3.06;79.34;102364.13;5009401;28;20049;-77
2022/01/21 12:53:25;;;;;;;21.10;8.10;;;;;;;3.10;79.25;102363.31;5000397;28;20115;-77
2022/01/21 12:56:31;;;;;;;12.25;5.22;;;;;;;3.22;79.22;102364.28;5009586;28;20060;-77
2022/01/21 12:59:35;;;;;;;13.73;5.20;;;;;;;3.21;78.91;102359.94;5009850;28;20148;-77
2022/01/21 13:02:38;;;;;;;12.23;5.57;;;;;;;3.37;79.28;102357.47;4997854;28;20080;-77
2022/01/21 13:05:51;;;;;;;11.75;7.13;;;;;;;3.42;77.73;102361.84;5009106;28;20064;-77
2022/01/21 13:09:02;;;;;;;14.10;6.82;;;;;;;3.53;77.77;102348.97;4997606;28;20459;-77
2022/01/21 13:12:11;;;;;;;9.95;4.18;;;;;;;3.35;77.40;102354.91;5008861;28;20044;-77
2022/01/21 13:15:15;;;;;;;12.77;5.63;;;;;;;3.29;77.97;102361.72;5009248;28;20063;-77
2022/01/21 13:18:21;;;;;;;;;;;;;;;3.30;77.84;102356.56;5009363;28;20076;-76
2022/01/21 13:21:24;;;;;;;18.77;6.07;;;;;;;3.46;77.77;102348.06;4996636;28;19959;-77
2022/01/21 13:24:30;;;;;;;;;;;;;;;3.29;78.33;102334.16;4996876;28;20041;-77
2022/01/21 13:27:36;;;;;;;11.57;4.15;;;;;;;3.63;77.55;102347.28;4983934;28;19924;-77
2022/01/21 13:30:39;;;;;;;9.60;4.13;;;;;;;3.76;77.37;102343.91;4973903;28;20057;-77
2022/01/21 13:33:43;;;;;;;11.63;4.40;;;;;;;3.69;77.35;102344.75;4996746;28;20607;-77
2022/01/21 13:36:59;;;;;;;12.10;5.40;;;;;;;3.70;77.14;102336.13;4997111;28;20044;-77
2022/01/21 13:40:05;;;;;;;11.80;3.78;;;;;;;3.65;76.78;102335.25;4995373;28;20087;-78
2022/01/21 13:43:09;;;;;;;9.98;3.80;;;;;;;3.60;77.13;102336.94;5008935;28;20060;-77
2022/01/21 13:46:15;;;;;;;10.90;4.28;;;;;;;3.68;77.28;102330.94;4996918;28;20510;-77
2022/01/21 13:49:24;;;;;;;10.70;4.40;;;;;;;3.89;76.52;102325.03;4982766;28;20467;-77
2022/01/21 13:52:54;;;;;;;14.70;4.88;;;;;;;4.07;76.18;102320.75;4966456;28;20061;-77
2022/01/21 13:56:00;;;;;;;14.00;5.32;;;;;;;3.96;76.31;102324.19;4991022;28;20049;-77
2022/01/21 13:59:03;;;;;;;12.82;4.10;;;;;;;3.62;77.21;102325.75;4995612;28;20044;-78
2022/01/21 14:02:10;;;;;;;9.90;4.10;;;;;;;3.46;77.86;102318.75;5007987;28;20041;-77
2022/01/21 14:05:18;;;;;;;16.00;3.92;;;;;;;3.53;77.62;102317.06;5007791;28;20526;-77
2022/01/21 14:08:45;;;;;;;11.70;4.00;;;;;;;3.77;77.64;102304.25;5007472;28;20041;-78
2022/01/21 14:11:50;;;;;;;11.52;4.72;;;;;;;4.01;77.46;102300.03;5008426;28;20468;-76
2022/01/21 14:14:53;;;;;;;;;;;;;;;3.86;76.72;102308.59;4984860;28;20573;-75
2022/01/21 14:17:58;;;;;;;13.35;6.25;;;;;;;3.75;76.72;102307.69;5007738;28;19966;-76
2022/01/21 14:21:15;;;;;;;13.18;3.80;;;;;;;3.91;76.84;102309.47;4991437;28;20533;-75
2022/01/21 14:24:23;;;;;;;16.58;5.93;;;;;;;4.01;76.34;102305.19;4975913;28;20100;-76
2022/01/21 14:27:30;;;;;;;12.57;4.78;;;;;;;3.91;76.78;102309.47;4975156;28;20058;-76
2022/01/21 14:30:40;;;;;;;19.10;5.65;;;;;;;4.02;76.63;102309.50;4983124;28;20469;-76
2022/01/21 14:33:43;;;;;;;14.32;6.25;;;;;;;4.05;76.88;102304.34;4964994;28;20052;-76
2022/01/21 14:37:12;;;;;;;15.32;5.25;;;;;;;4.20;75.91;102300.06;4988054;28;20104;-76
2022/01/21 14:40:28;;;;;;;11.73;3.20;;;;;;;4.03;76.57;102303.50;4956298;28;20074;-77
2022/01/21 14:43:32;;;;;;;15.85;4.82;;;;;;;4.08;76.36;102309.53;4956551;28;20066;-77
2022/01/21 14:46:36;;;;;;;14.23;3.40;;;;;;;3.94;77.08;102299.16;4968851;28;20134;-76
2022/01/21 14:49:41;;;;;;;13.60;3.58;;;;;;;3.95;77.61;102311.22;4979493;28;20692;-77
2022/01/21 14:52:56;;;;;;;15.68;3.08;;;;;;;3.92;77.99;102314.69;4976352;28;20400;-77
2022/01/21 14:56:00;;;;;;;14.77;4.57;;;;;;;3.80;78.19;102317.22;5007879;28;20450;-77
2022/01/21 14:59:13;;;;;;;14.93;3.80;;;;;;;3.68;78.68;102311.97;5008061;28;20053;-77
2022/01/21 15:02:27;;;;;;;13.73;4.40;;;;;;;3.61;78.70;102302.47;4996653;28;20052;-76
2022/01/21 15:05:32;;;;;;;15.25;3.85;;;;;;;3.52;79.37;102315.34;5008292;28;20059;-76
2022/01/21 15:08:42;;;;;;;18.50;5.82;;;;;;;3.53;79.50;102311.91;5008013;28;20538;-77
2022/01/21 15:12:08;;;;;;;13.73;4.53;;;;;;;3.52;79.08;102308.44;5007593;28;20607;-76
2022/01/21 15:15:25;;;;;;;15.07;5.60;;;;;;;3.71;78.85;102297.34;5007314;28;20251;-77
2022/01/21 15:18:29;;;;;;;13.00;3.58;;;;;;;3.67;78.73;102295.59;5008180;28;20037;-77
2022/01/21 15:21:33;;;;;;;10.57;2.92;;;;;;;3.64;78.81;102299.91;4995111;28;20052;-77
2022/01/21 15:24:40;;;;;;;11.75;3.33;;;;;;;3.62;79.03;102299.88;4994548;28;20040;-77
2022/01/21 15:27:43;;;;;;;11.85;4.10;;;;;;;3.61;78.72;102310.22;4983498;28;20053;-77
2022/01/21 15:30:47;;;;;;;10.35;3.10;;;;;;;3.57;78.91;102304.16;4996261;28;20126;-77
2022/01/21 15:33:50;;;;;;;13.15;3.78;;;;;;;3.56;79.15;102301.56;4987600;28;20535;-77